Mohawk, Tennessee
Current Conditions -  °F | °C
As of 7:55 PM on Tuesday 21 Oct 2014 (Local Time) from KMOR Reporting Station
Broken Clouds Broken Clouds  
Wind Chill: 13°   Ceiling: 6500
Heat Index: 13°   Visibility: 10mi
Dew Point:   Wind: 9mph
Humidity: 58%   Direction: 360°N
Pressure: 30.07"   Gusts: NA
Location:  36.2°N, 83.05°W
Report Text: KMOR 212355Z AUTO 36008KT 10SM BKN065 13/05 A3007 RMK
Loading
Personal Weather Stations






























Interactive Weather Map
Tropical Storm Tracking
New forecast layout! Learn more

10-Day Weather Forecast

Advertisements
Track Severe Weather on mobile